sensor_id;sensor_type;location;lat;lon;timestamp;P1;durP1;ratioP1;P2;durP2;ratioP2
34134;SDS011;20410;55.578;12.968;2022-08-19T00:01:24;22.45;;;20.15;;
34134;SDS011;20410;55.578;12.968;2022-08-19T00:03:52;20.73;;;18.58;;
34134;SDS011;20410;55.578;12.968;2022-08-19T00:06:17;21.77;;;19.45;;
34134;SDS011;20410;55.578;12.968;2022-08-19T00:08:43;20.38;;;18.00;;
34134;SDS011;20410;55.578;12.968;2022-08-19T00:11:09;21.13;;;19.08;;
34134;SDS011;20410;55.578;12.968;2022-08-19T00:13:35;20.38;;;18.00;;
34134;SDS011;20410;55.578;12.968;2022-08-19T00:16:02;18.13;;;16.40;;
34134;SDS011;20410;55.578;12.968;2022-08-19T00:18:28;21.63;;;17.20;;
34134;SDS011;20410;55.578;12.968;2022-08-19T00:20:53;18.15;;;16.30;;
34134;SDS011;20410;55.578;12.968;2022-08-19T00:23:19;19.25;;;16.90;;
34134;SDS011;20410;55.578;12.968;2022-08-19T00:25:45;18.38;;;16.48;;
34134;SDS011;20410;55.578;12.968;2022-08-19T00:28:10;18.60;;;16.65;;
34134;SDS011;20410;55.578;12.968;2022-08-19T00:30:36;19.42;;;15.80;;
34134;SDS011;20410;55.578;12.968;2022-08-19T00:33:02;17.33;;;15.52;;
34134;SDS011;20410;55.578;12.968;2022-08-19T00:35:27;19.17;;;17.08;;
34134;SDS011;20410;55.578;12.968;2022-08-19T00:37:53;19.42;;;17.33;;
34134;SDS011;20410;55.578;12.968;2022-08-19T00:40:19;19.83;;;16.40;;
34134;SDS011;20410;55.578;12.968;2022-08-19T00:42:45;17.90;;;15.35;;
34134;SDS011;20410;55.578;12.968;2022-08-19T00:45:14;18.67;;;16.88;;
34134;SDS011;20410;55.578;12.968;2022-08-19T00:47:42;19.95;;;17.98;;
34134;SDS011;20410;55.578;12.968;2022-08-19T00:50:09;17.50;;;15.68;;
34134;SDS011;20410;55.578;12.968;2022-08-19T00:52:39;18.27;;;16.48;;
34134;SDS011;20410;55.578;12.968;2022-08-19T00:55:10;18.45;;;14.95;;
34134;SDS011;20410;55.578;12.968;2022-08-19T00:57:55;17.08;;;15.15;;
34134;SDS011;20410;55.578;12.968;2022-08-19T01:00:25;18.42;;;16.58;;
34134;SDS011;20410;55.578;12.968;2022-08-19T01:02:51;18.85;;;16.92;;
34134;SDS011;20410;55.578;12.968;2022-08-19T01:05:18;22.08;;;19.63;;
34134;SDS011;20410;55.578;12.968;2022-08-19T01:07:47;21.65;;;19.55;;
34134;SDS011;20410;55.578;12.968;2022-08-19T01:10:15;22.70;;;20.27;;
34134;SDS011;20410;55.578;12.968;2022-08-19T01:12:43;22.08;;;19.75;;
34134;SDS011;20410;55.578;12.968;2022-08-19T01:15:11;17.73;;;15.85;;
34134;SDS011;20410;55.578;12.968;2022-08-19T01:17:39;19.30;;;16.90;;
34134;SDS011;20410;55.578;12.968;2022-08-19T01:20:06;19.80;;;17.98;;
34134;SDS011;20410;55.578;12.968;2022-08-19T01:22:37;19.67;;;17.77;;
34134;SDS011;20410;55.578;12.968;2022-08-19T01:25:09;20.48;;;18.35;;
34134;SDS011;20410;55.578;12.968;2022-08-19T01:27:39;21.17;;;18.60;;
34134;SDS011;20410;55.578;12.968;2022-08-19T01:30:06;20.77;;;18.38;;
34134;SDS011;20410;55.578;12.968;2022-08-19T01:32:32;18.88;;;16.30;;
34134;SDS011;20410;55.578;12.968;2022-08-19T01:34:58;18.20;;;16.40;;
34134;SDS011;20410;55.578;12.968;2022-08-19T01:37:26;18.60;;;16.67;;
34134;SDS011;20410;55.578;12.968;2022-08-19T01:39:52;20.58;;;18.67;;
34134;SDS011;20410;55.578;12.968;2022-08-19T01:42:18;22.85;;;20.60;;
34134;SDS011;20410;55.578;12.968;2022-08-19T01:44:44;24.30;;;21.83;;
34134;SDS011;20410;55.578;12.968;2022-08-19T01:47:09;26.90;;;23.92;;
34134;SDS011;20410;55.578;12.968;2022-08-19T01:49:35;19.50;;;17.50;;
34134;SDS011;20410;55.578;12.968;2022-08-19T01:52:02;17.70;;;15.82;;
34134;SDS011;20410;55.578;12.968;2022-08-19T01:54:28;18.63;;;16.80;;
34134;SDS011;20410;55.578;12.968;2022-08-19T01:56:56;21.98;;;19.88;;
34134;SDS011;20410;55.578;12.968;2022-08-19T01:59:25;20.15;;;18.15;;
34134;SDS011;20410;55.578;12.968;2022-08-19T02:01:50;23.15;;;19.83;;
34134;SDS011;20410;55.578;12.968;2022-08-19T02:04:16;20.13;;;18.20;;
34134;SDS011;20410;55.578;12.968;2022-08-19T02:06:41;23.77;;;21.55;;
34134;SDS011;20410;55.578;12.968;2022-08-19T02:09:07;24.52;;;22.00;;
34134;SDS011;20410;55.578;12.968;2022-08-19T02:11:33;24.65;;;22.35;;
34134;SDS011;20410;55.578;12.968;2022-08-19T02:14:02;20.75;;;18.75;;
34134;SDS011;20410;55.578;12.968;2022-08-19T02:16:30;19.23;;;17.33;;
34134;SDS011;20410;55.578;12.968;2022-08-19T02:18:55;23.35;;;20.08;;
34134;SDS011;20410;55.578;12.968;2022-08-19T02:21:22;22.38;;;19.98;;
34134;SDS011;20410;55.578;12.968;2022-08-19T02:23:48;22.17;;;19.88;;
34134;SDS011;20410;55.578;12.968;2022-08-19T02:26:15;23.38;;;21.17;;
34134;SDS011;20410;55.578;12.968;2022-08-19T02:28:41;24.27;;;21.20;;
34134;SDS011;20410;55.578;12.968;2022-08-19T02:31:13;23.85;;;21.55;;
34134;SDS011;20410;55.578;12.968;2022-08-19T02:33:42;25.60;;;22.92;;
34134;SDS011;20410;55.578;12.968;2022-08-19T02:36:08;24.58;;;22.25;;
34134;SDS011;20410;55.578;12.968;2022-08-19T02:38:35;27.35;;;24.52;;
34134;SDS011;20410;55.578;12.968;2022-08-19T02:41:04;25.90;;;23.40;;
34134;SDS011;20410;55.578;12.968;2022-08-19T02:43:32;22.10;;;19.90;;
34134;SDS011;20410;55.578;12.968;2022-08-19T02:46:01;23.95;;;21.63;;
34134;SDS011;20410;55.578;12.968;2022-08-19T02:49:03;25.00;;;22.60;;
34134;SDS011;20410;55.578;12.968;2022-08-19T02:51:40;26.80;;;24.23;;
34134;SDS011;20410;55.578;12.968;2022-08-19T02:54:07;23.58;;;21.15;;
34134;SDS011;20410;55.578;12.968;2022-08-19T02:56:35;20.73;;;18.60;;
34134;SDS011;20410;55.578;12.968;2022-08-19T02:59:03;18.83;;;17.05;;
34134;SDS011;20410;55.578;12.968;2022-08-19T03:01:36;21.15;;;18.98;;
34134;SDS011;20410;55.578;12.968;2022-08-19T03:04:05;21.15;;;19.00;;
34134;SDS011;20410;55.578;12.968;2022-08-19T03:06:34;26.25;;;23.73;;
34134;SDS011;20410;55.578;12.968;2022-08-19T03:09:01;17.00;;;15.45;;
34134;SDS011;20410;55.578;12.968;2022-08-19T03:11:29;17.88;;;16.15;;
34134;SDS011;20410;55.578;12.968;2022-08-19T03:13:57;17.73;;;15.93;;
34134;SDS011;20410;55.578;12.968;2022-08-19T03:16:26;21.63;;;19.55;;
34134;SDS011;20410;55.578;12.968;2022-08-19T03:18:53;18.25;;;16.50;;
34134;SDS011;20410;55.578;12.968;2022-08-19T03:21:20;19.90;;;18.00;;
34134;SDS011;20410;55.578;12.968;2022-08-19T03:23:48;19.80;;;17.75;;
34134;SDS011;20410;55.578;12.968;2022-08-19T03:26:14;20.60;;;18.63;;
34134;SDS011;20410;55.578;12.968;2022-08-19T03:28:41;21.10;;;18.85;;
34134;SDS011;20410;55.578;12.968;2022-08-19T03:31:10;19.25;;;17.35;;
34134;SDS011;20410;55.578;12.968;2022-08-19T03:33:38;18.05;;;16.33;;
34134;SDS011;20410;55.578;12.968;2022-08-19T03:36:26;19.13;;;17.38;;
34134;SDS011;20410;55.578;12.968;2022-08-19T03:38:53;20.15;;;18.15;;
34134;SDS011;20410;55.578;12.968;2022-08-19T03:41:22;23.67;;;21.30;;
34134;SDS011;20410;55.578;12.968;2022-08-19T03:43:50;31.60;;;23.52;;
34134;SDS011;20410;55.578;12.968;2022-08-19T03:46:19;26.40;;;23.77;;
34134;SDS011;20410;55.578;12.968;2022-08-19T03:48:50;26.75;;;24.05;;
34134;SDS011;20410;55.578;12.968;2022-08-19T03:51:29;24.25;;;21.95;;
34134;SDS011;20410;55.578;12.968;2022-08-19T03:53:57;25.25;;;22.63;;
34134;SDS011;20410;55.578;12.968;2022-08-19T03:56:24;25.50;;;22.95;;
34134;SDS011;20410;55.578;12.968;2022-08-19T03:58:51;25.63;;;22.98;;
34134;SDS011;20410;55.578;12.968;2022-08-19T04:01:18;26.48;;;23.70;;
34134;SDS011;20410;55.578;12.968;2022-08-19T04:03:47;25.88;;;23.10;;
34134;SDS011;20410;55.578;12.968;2022-08-19T04:06:21;23.17;;;21.02;;
34134;SDS011;20410;55.578;12.968;2022-08-19T04:08:49;23.42;;;21.15;;
34134;SDS011;20410;55.578;12.968;2022-08-19T04:11:17;22.13;;;19.77;;
34134;SDS011;20410;55.578;12.968;2022-08-19T04:13:46;27.20;;;22.58;;
34134;SDS011;20410;55.578;12.968;2022-08-19T04:16:12;20.30;;;18.40;;
34134;SDS011;20410;55.578;12.968;2022-08-19T04:18:38;19.92;;;17.88;;
34134;SDS011;20410;55.578;12.968;2022-08-19T04:21:05;19.20;;;17.30;;
34134;SDS011;20410;55.578;12.968;2022-08-19T04:23:33;24.67;;;22.35;;
34134;SDS011;20410;55.578;12.968;2022-08-19T04:26:03;27.33;;;24.52;;
34134;SDS011;20410;55.578;12.968;2022-08-19T04:28:28;28.00;;;24.08;;
34134;SDS011;20410;55.578;12.968;2022-08-19T04:30:54;25.35;;;22.70;;
34134;SDS011;20410;55.578;12.968;2022-08-19T04:33:22;25.65;;;22.50;;
34134;SDS011;20410;55.578;12.968;2022-08-19T04:35:49;19.48;;;17.42;;
34134;SDS011;20410;55.578;12.968;2022-08-19T04:38:17;20.23;;;18.38;;
34134;SDS011;20410;55.578;12.968;2022-08-19T04:40:45;21.02;;;18.98;;
34134;SDS011;20410;55.578;12.968;2022-08-19T04:43:31;27.63;;;24.90;;
34134;SDS011;20410;55.578;12.968;2022-08-19T04:45:57;29.42;;;26.30;;
34134;SDS011;20410;55.578;12.968;2022-08-19T04:48:23;29.73;;;26.63;;
34134;SDS011;20410;55.578;12.968;2022-08-19T04:50:51;27.35;;;24.60;;
34134;SDS011;20410;55.578;12.968;2022-08-19T04:53:24;28.15;;;24.45;;
34134;SDS011;20410;55.578;12.968;2022-08-19T04:55:56;29.40;;;25.45;;
34134;SDS011;20410;55.578;12.968;2022-08-19T04:58:23;28.70;;;25.85;;
34134;SDS011;20410;55.578;12.968;2022-08-19T05:00:50;24.50;;;22.05;;
34134;SDS011;20410;55.578;12.968;2022-08-19T05:03:16;25.23;;;22.80;;
34134;SDS011;20410;55.578;12.968;2022-08-19T05:05:45;28.42;;;23.73;;
34134;SDS011;20410;55.578;12.968;2022-08-19T05:08:14;27.77;;;25.08;;
34134;SDS011;20410;55.578;12.968;2022-08-19T05:10:44;27.48;;;24.98;;
34134;SDS011;20410;55.578;12.968;2022-08-19T05:13:15;29.63;;;26.67;;
34134;SDS011;20410;55.578;12.968;2022-08-19T05:15:42;29.42;;;26.42;;
34134;SDS011;20410;55.578;12.968;2022-08-19T05:18:09;29.83;;;25.80;;
34134;SDS011;20410;55.578;12.968;2022-08-19T05:20:54;30.27;;;27.00;;
34134;SDS011;20410;55.578;12.968;2022-08-19T05:23:38;30.48;;;27.50;;
34134;SDS011;20410;55.578;12.968;2022-08-19T05:26:05;27.95;;;25.15;;
34134;SDS011;20410;55.578;12.968;2022-08-19T05:28:30;25.67;;;23.05;;
34134;SDS011;20410;55.578;12.968;2022-08-19T05:30:56;24.52;;;21.77;;
34134;SDS011;20410;55.578;12.968;2022-08-19T05:33:22;25.75;;;23.40;;
34134;SDS011;20410;55.578;12.968;2022-08-19T05:35:49;29.52;;;26.45;;
34134;SDS011;20410;55.578;12.968;2022-08-19T05:38:16;26.70;;;24.05;;
34134;SDS011;20410;55.578;12.968;2022-08-19T05:40:42;27.88;;;24.63;;
34134;SDS011;20410;55.578;12.968;2022-08-19T05:43:13;26.15;;;23.65;;
34134;SDS011;20410;55.578;12.968;2022-08-19T05:45:41;26.48;;;23.65;;
34134;SDS011;20410;55.578;12.968;2022-08-19T05:48:08;23.38;;;21.10;;
34134;SDS011;20410;55.578;12.968;2022-08-19T05:50:39;23.08;;;20.88;;
34134;SDS011;20410;55.578;12.968;2022-08-19T05:53:06;22.85;;;20.80;;
34134;SDS011;20410;55.578;12.968;2022-08-19T05:55:32;27.05;;;23.27;;
34134;SDS011;20410;55.578;12.968;2022-08-19T05:57:57;24.85;;;22.30;;
34134;SDS011;20410;55.578;12.968;2022-08-19T06:00:23;24.85;;;22.27;;
34134;SDS011;20410;55.578;12.968;2022-08-19T06:02:49;24.00;;;21.58;;
34134;SDS011;20410;55.578;12.968;2022-08-19T06:05:15;24.70;;;22.33;;
34134;SDS011;20410;55.578;12.968;2022-08-19T06:07:41;25.85;;;23.23;;
34134;SDS011;20410;55.578;12.968;2022-08-19T06:10:08;23.27;;;20.88;;
34134;SDS011;20410;55.578;12.968;2022-08-19T06:12:35;23.92;;;21.63;;
34134;SDS011;20410;55.578;12.968;2022-08-19T06:15:05;25.58;;;20.13;;
34134;SDS011;20410;55.578;12.968;2022-08-19T06:17:35;24.85;;;22.45;;
34134;SDS011;20410;55.578;12.968;2022-08-19T06:20:08;24.48;;;21.95;;
34134;SDS011;20410;55.578;12.968;2022-08-19T06:22:42;24.33;;;21.23;;
34134;SDS011;20410;55.578;12.968;2022-08-19T06:25:14;24.02;;;21.60;;
34134;SDS011;20410;55.578;12.968;2022-08-19T06:27:40;22.13;;;20.10;;
34134;SDS011;20410;55.578;12.968;2022-08-19T06:30:06;21.83;;;18.83;;
34134;SDS011;20410;55.578;12.968;2022-08-19T06:32:32;20.33;;;18.17;;
34134;SDS011;20410;55.578;12.968;2022-08-19T06:34:58;18.27;;;16.50;;
34134;SDS011;20410;55.578;12.968;2022-08-19T06:37:23;18.45;;;16.55;;
34134;SDS011;20410;55.578;12.968;2022-08-19T06:39:49;17.67;;;15.88;;
34134;SDS011;20410;55.578;12.968;2022-08-19T06:42:16;18.10;;;16.30;;
34134;SDS011;20410;55.578;12.968;2022-08-19T06:44:43;20.42;;;18.48;;
34134;SDS011;20410;55.578;12.968;2022-08-19T06:47:13;18.33;;;16.40;;
34134;SDS011;20410;55.578;12.968;2022-08-19T06:49:40;21.33;;;17.77;;
34134;SDS011;20410;55.578;12.968;2022-08-19T06:52:08;21.95;;;16.45;;
34134;SDS011;20410;55.578;12.968;2022-08-19T06:54:37;20.05;;;16.98;;
34134;SDS011;20410;55.578;12.968;2022-08-19T06:57:04;17.00;;;15.30;;
34134;SDS011;20410;55.578;12.968;2022-08-19T06:59:31;16.58;;;14.93;;
34134;SDS011;20410;55.578;12.968;2022-08-19T07:02:01;18.23;;;15.20;;
34134;SDS011;20410;55.578;12.968;2022-08-19T07:04:30;19.08;;;14.32;;
34134;SDS011;20410;55.578;12.968;2022-08-19T07:07:02;18.45;;;14.77;;
34134;SDS011;20410;55.578;12.968;2022-08-19T07:09:38;18.23;;;14.05;;
34134;SDS011;20410;55.578;12.968;2022-08-19T07:12:07;15.90;;;14.25;;
34134;SDS011;20410;55.578;12.968;2022-08-19T07:14:34;14.95;;;13.55;;
34134;SDS011;20410;55.578;12.968;2022-08-19T07:17:04;16.23;;;12.75;;
34134;SDS011;20410;55.578;12.968;2022-08-19T07:19:32;14.38;;;12.10;;
34134;SDS011;20410;55.578;12.968;2022-08-19T07:21:58;14.38;;;12.60;;
34134;SDS011;20410;55.578;12.968;2022-08-19T07:24:26;14.98;;;12.75;;
34134;SDS011;20410;55.578;12.968;2022-08-19T07:26:54;14.13;;;12.05;;
34134;SDS011;20410;55.578;12.968;2022-08-19T07:29:22;15.20;;;11.70;;
34134;SDS011;20410;55.578;12.968;2022-08-19T07:31:51;15.60;;;11.15;;
34134;SDS011;20410;55.578;12.968;2022-08-19T07:34:21;11.82;;;10.55;;
34134;SDS011;20410;55.578;12.968;2022-08-19T07:36:48;12.07;;;10.88;;
34134;SDS011;20410;55.578;12.968;2022-08-19T07:39:15;13.05;;;11.70;;
34134;SDS011;20410;55.578;12.968;2022-08-19T07:41:45;13.05;;;11.85;;
34134;SDS011;20410;55.578;12.968;2022-08-19T07:44:12;12.75;;;10.85;;
34134;SDS011;20410;55.578;12.968;2022-08-19T07:46:42;10.82;;;9.73;;
34134;SDS011;20410;55.578;12.968;2022-08-19T07:49:09;14.13;;;11.15;;
34134;SDS011;20410;55.578;12.968;2022-08-19T07:51:42;13.50;;;12.15;;
34134;SDS011;20410;55.578;12.968;2022-08-19T07:54:09;13.75;;;12.15;;
34134;SDS011;20410;55.578;12.968;2022-08-19T07:56:36;16.23;;;13.40;;
34134;SDS011;20410;55.578;12.968;2022-08-19T07:59:02;14.55;;;13.00;;
34134;SDS011;20410;55.578;12.968;2022-08-19T08:01:28;16.50;;;11.85;;
34134;SDS011;20410;55.578;12.968;2022-08-19T08:03:55;12.88;;;11.50;;
34134;SDS011;20410;55.578;12.968;2022-08-19T08:06:39;13.38;;;11.07;;
34134;SDS011;20410;55.578;12.968;2022-08-19T08:09:29;17.98;;;13.73;;
34134;SDS011;20410;55.578;12.968;2022-08-19T08:11:58;20.77;;;18.50;;
34134;SDS011;20410;55.578;12.968;2022-08-19T08:14:28;24.13;;;21.55;;
34134;SDS011;20410;55.578;12.968;2022-08-19T08:16:56;27.05;;;24.35;;
34134;SDS011;20410;55.578;12.968;2022-08-19T08:19:22;24.85;;;22.38;;
34134;SDS011;20410;55.578;12.968;2022-08-19T08:21:50;23.67;;;21.23;;
34134;SDS011;20410;55.578;12.968;2022-08-19T08:24:16;16.85;;;15.25;;
34134;SDS011;20410;55.578;12.968;2022-08-19T08:26:42;26.30;;;22.00;;
34134;SDS011;20410;55.578;12.968;2022-08-19T08:29:12;23.92;;;21.40;;
34134;SDS011;20410;55.578;12.968;2022-08-19T08:31:39;25.50;;;22.17;;
34134;SDS011;20410;55.578;12.968;2022-08-19T08:34:05;22.90;;;20.80;;
34134;SDS011;20410;55.578;12.968;2022-08-19T08:36:31;21.75;;;19.48;;
34134;SDS011;20410;55.578;12.968;2022-08-19T08:38:58;32.45;;;19.67;;
34134;SDS011;20410;55.578;12.968;2022-08-19T08:41:30;22.20;;;20.10;;
34134;SDS011;20410;55.578;12.968;2022-08-19T08:44:21;19.05;;;17.05;;
34134;SDS011;20410;55.578;12.968;2022-08-19T08:46:57;19.17;;;17.17;;
34134;SDS011;20410;55.578;12.968;2022-08-19T08:52:00;16.40;;;14.75;;
34134;SDS011;20410;55.578;12.968;2022-08-19T08:54:33;17.75;;;12.60;;
34134;SDS011;20410;55.578;12.968;2022-08-19T08:57:04;16.50;;;14.70;;
34134;SDS011;20410;55.578;12.968;2022-08-19T08:59:36;15.38;;;13.88;;
34134;SDS011;20410;55.578;12.968;2022-08-19T09:02:04;14.05;;;12.55;;
34134;SDS011;20410;55.578;12.968;2022-08-19T09:04:30;12.30;;;10.93;;
34134;SDS011;20410;55.578;12.968;2022-08-19T09:09:55;9.93;;;8.75;;
34134;SDS011;20410;55.578;12.968;2022-08-19T09:15:19;9.27;;;8.38;;
34134;SDS011;20410;55.578;12.968;2022-08-19T09:17:53;10.27;;;7.95;;
34134;SDS011;20410;55.578;12.968;2022-08-19T09:20:19;10.65;;;7.45;;
34134;SDS011;20410;55.578;12.968;2022-08-19T09:22:47;11.15;;;6.97;;
34134;SDS011;20410;55.578;12.968;2022-08-19T09:25:15;8.75;;;7.85;;
34134;SDS011;20410;55.578;12.968;2022-08-19T09:27:42;9.13;;;7.07;;
34134;SDS011;20410;55.578;12.968;2022-08-19T09:30:10;9.48;;;7.15;;
34134;SDS011;20410;55.578;12.968;2022-08-19T09:32:42;7.65;;;6.95;;
34134;SDS011;20410;55.578;12.968;2022-08-19T09:35:08;7.93;;;7.22;;
34134;SDS011;20410;55.578;12.968;2022-08-19T09:37:34;8.35;;;7.55;;
34134;SDS011;20410;55.578;12.968;2022-08-19T09:40:00;9.70;;;7.10;;
34134;SDS011;20410;55.578;12.968;2022-08-19T09:42:26;9.48;;;7.30;;
34134;SDS011;20410;55.578;12.968;2022-08-19T09:44:51;9.75;;;8.07;;
34134;SDS011;20410;55.578;12.968;2022-08-19T09:47:17;9.43;;;7.18;;
34134;SDS011;20410;55.578;12.968;2022-08-19T09:49:42;13.20;;;8.95;;
34134;SDS011;20410;55.578;12.968;2022-08-19T09:52:08;14.65;;;8.30;;
34134;SDS011;20410;55.578;12.968;2022-08-19T09:54:35;9.50;;;8.60;;
34134;SDS011;20410;55.578;12.968;2022-08-19T09:57:02;11.18;;;8.40;;
34134;SDS011;20410;55.578;12.968;2022-08-19T09:59:28;11.00;;;9.50;;
34134;SDS011;20410;55.578;12.968;2022-08-19T10:01:54;12.75;;;8.43;;
34134;SDS011;20410;55.578;12.968;2022-08-19T10:04:20;9.40;;;7.65;;
34134;SDS011;20410;55.578;12.968;2022-08-19T10:06:46;9.43;;;8.15;;
34134;SDS011;20410;55.578;12.968;2022-08-19T10:09:13;10.15;;;7.68;;
34134;SDS011;20410;55.578;12.968;2022-08-19T10:11:41;8.07;;;7.20;;
34134;SDS011;20410;55.578;12.968;2022-08-19T10:14:11;7.68;;;6.88;;
34134;SDS011;20410;55.578;12.968;2022-08-19T10:16:37;9.07;;;7.00;;
34134;SDS011;20410;55.578;12.968;2022-08-19T10:19:04;7.80;;;6.97;;
34134;SDS011;20410;55.578;12.968;2022-08-19T10:21:32;7.68;;;6.97;;
34134;SDS011;20410;55.578;12.968;2022-08-19T10:24:00;8.85;;;7.32;;
34134;SDS011;20410;55.578;12.968;2022-08-19T10:26:30;8.00;;;7.20;;
34134;SDS011;20410;55.578;12.968;2022-08-19T10:28:58;9.95;;;7.30;;
34134;SDS011;20410;55.578;12.968;2022-08-19T10:31:26;8.85;;;7.00;;
34134;SDS011;20410;55.578;12.968;2022-08-19T10:33:54;9.95;;;6.68;;
34134;SDS011;20410;55.578;12.968;2022-08-19T10:36:22;7.85;;;6.78;;
34134;SDS011;20410;55.578;12.968;2022-08-19T10:38:58;9.57;;;6.85;;
34134;SDS011;20410;55.578;12.968;2022-08-19T10:41:27;7.35;;;6.63;;
34134;SDS011;20410;55.578;12.968;2022-08-19T10:44:02;10.10;;;6.60;;
34134;SDS011;20410;55.578;12.968;2022-08-19T10:46:30;7.97;;;6.65;;
34134;SDS011;20410;55.578;12.968;2022-08-19T10:48:57;8.02;;;7.10;;
34134;SDS011;20410;55.578;12.968;2022-08-19T10:51:24;7.57;;;6.75;;
34134;SDS011;20410;55.578;12.968;2022-08-19T10:54:08;7.75;;;7.03;;
34134;SDS011;20410;55.578;12.968;2022-08-19T10:56:34;10.35;;;6.97;;
34134;SDS011;20410;55.578;12.968;2022-08-19T10:59:24;7.75;;;6.50;;
34134;SDS011;20410;55.578;12.968;2022-08-19T11:01:52;7.68;;;6.82;;
34134;SDS011;20410;55.578;12.968;2022-08-19T11:04:19;7.53;;;6.50;;
34134;SDS011;20410;55.578;12.968;2022-08-19T11:06:45;7.63;;;6.72;;
34134;SDS011;20410;55.578;12.968;2022-08-19T11:09:12;8.00;;;7.30;;
34134;SDS011;20410;55.578;12.968;2022-08-19T11:12:01;7.60;;;6.50;;
34134;SDS011;20410;55.578;12.968;2022-08-19T11:14:28;8.23;;;7.13;;
34134;SDS011;20410;55.578;12.968;2022-08-19T11:16:55;7.80;;;6.88;;
34134;SDS011;20410;55.578;12.968;2022-08-19T11:19:22;7.60;;;6.88;;
34134;SDS011;20410;55.578;12.968;2022-08-19T11:21:49;8.70;;;6.65;;
34134;SDS011;20410;55.578;12.968;2022-08-19T11:24:19;7.70;;;6.90;;
34134;SDS011;20410;55.578;12.968;2022-08-19T11:26:48;7.85;;;6.68;;
34134;SDS011;20410;55.578;12.968;2022-08-19T11:29:15;7.53;;;6.78;;
34134;SDS011;20410;55.578;12.968;2022-08-19T11:31:43;7.13;;;6.43;;
34134;SDS011;20410;55.578;12.968;2022-08-19T11:34:12;8.75;;;7.40;;
34134;SDS011;20410;55.578;12.968;2022-08-19T11:36:42;9.30;;;7.40;;
34134;SDS011;20410;55.578;12.968;2022-08-19T11:39:10;8.55;;;7.63;;
34134;SDS011;20410;55.578;12.968;2022-08-19T11:41:38;11.90;;;9.05;;
34134;SDS011;20410;55.578;12.968;2022-08-19T11:44:03;12.30;;;10.07;;
34134;SDS011;20410;55.578;12.968;2022-08-19T11:46:32;12.13;;;10.40;;
34134;SDS011;20410;55.578;12.968;2022-08-19T11:48:59;24.00;;;19.30;;
34134;SDS011;20410;55.578;12.968;2022-08-19T11:51:26;21.35;;;19.08;;
34134;SDS011;20410;55.578;12.968;2022-08-19T11:53:55;25.65;;;22.80;;
34134;SDS011;20410;55.578;12.968;2022-08-19T11:56:22;24.17;;;21.67;;
34134;SDS011;20410;55.578;12.968;2022-08-19T11:58:49;22.02;;;19.98;;
34134;SDS011;20410;55.578;12.968;2022-08-19T12:01:15;28.70;;;25.83;;
34134;SDS011;20410;55.578;12.968;2022-08-19T12:03:44;31.67;;;27.98;;
34134;SDS011;20410;55.578;12.968;2022-08-19T12:06:12;30.20;;;27.10;;
34134;SDS011;20410;55.578;12.968;2022-08-19T12:08:58;31.58;;;28.45;;
34134;SDS011;20410;55.578;12.968;2022-08-19T12:11:25;38.83;;;34.75;;
34134;SDS011;20410;55.578;12.968;2022-08-19T12:13:51;40.30;;;36.08;;
34134;SDS011;20410;55.578;12.968;2022-08-19T12:16:19;42.53;;;38.05;;
34134;SDS011;20410;55.578;12.968;2022-08-19T12:18:51;43.00;;;38.33;;
34134;SDS011;20410;55.578;12.968;2022-08-19T12:21:19;39.95;;;35.90;;
34134;SDS011;20410;55.578;12.968;2022-08-19T12:23:47;39.20;;;35.17;;
34134;SDS011;20410;55.578;12.968;2022-08-19T12:26:16;45.55;;;40.95;;
34134;SDS011;20410;55.578;12.968;2022-08-19T12:28:42;46.80;;;41.70;;
34134;SDS011;20410;55.578;12.968;2022-08-19T12:31:09;37.65;;;34.03;;
34134;SDS011;20410;55.578;12.968;2022-08-19T12:33:37;49.60;;;41.88;;
34134;SDS011;20410;55.578;12.968;2022-08-19T12:36:03;47.15;;;41.97;;
34134;SDS011;20410;55.578;12.968;2022-08-19T12:38:32;43.22;;;38.75;;
34134;SDS011;20410;55.578;12.968;2022-08-19T12:40:59;48.25;;;41.55;;
34134;SDS011;20410;55.578;12.968;2022-08-19T12:43:25;48.05;;;41.00;;
34134;SDS011;20410;55.578;12.968;2022-08-19T12:45:50;51.17;;;42.58;;
34134;SDS011;20410;55.578;12.968;2022-08-19T12:48:16;45.10;;;39.80;;
34134;SDS011;20410;55.578;12.968;2022-08-19T12:50:42;46.03;;;40.83;;
34134;SDS011;20410;55.578;12.968;2022-08-19T12:53:12;40.63;;;36.25;;
34134;SDS011;20410;55.578;12.968;2022-08-19T12:55:39;34.67;;;30.95;;
34134;SDS011;20410;55.578;12.968;2022-08-19T12:58:05;35.38;;;31.15;;
34134;SDS011;20410;55.578;12.968;2022-08-19T13:00:30;40.28;;;33.58;;
34134;SDS011;20410;55.578;12.968;2022-08-19T13:02:58;31.40;;;28.17;;
34134;SDS011;20410;55.578;12.968;2022-08-19T13:05:25;29.58;;;26.38;;
34134;SDS011;20410;55.578;12.968;2022-08-19T13:07:53;27.00;;;24.25;;
34134;SDS011;20410;55.578;12.968;2022-08-19T13:10:22;27.88;;;22.48;;
34134;SDS011;20410;55.578;12.968;2022-08-19T13:12:50;23.83;;;21.45;;
34134;SDS011;20410;55.578;12.968;2022-08-19T13:15:17;24.35;;;21.67;;
34134;SDS011;20410;55.578;12.968;2022-08-19T13:17:47;22.40;;;16.50;;
34134;SDS011;20410;55.578;12.968;2022-08-19T13:20:14;26.88;;;24.13;;
34134;SDS011;20410;55.578;12.968;2022-08-19T13:22:41;27.10;;;24.42;;
34134;SDS011;20410;55.578;12.968;2022-08-19T13:25:07;31.85;;;28.15;;
34134;SDS011;20410;55.578;12.968;2022-08-19T13:27:34;29.13;;;26.08;;
34134;SDS011;20410;55.578;12.968;2022-08-19T13:30:00;24.58;;;22.30;;
34134;SDS011;20410;55.578;12.968;2022-08-19T13:32:46;26.38;;;22.35;;
34134;SDS011;20410;55.578;12.968;2022-08-19T13:35:30;22.10;;;19.85;;
34134;SDS011;20410;55.578;12.968;2022-08-19T13:37:56;20.48;;;18.67;;
34134;SDS011;20410;55.578;12.968;2022-08-19T13:40:22;16.58;;;15.00;;
34134;SDS011;20410;55.578;12.968;2022-08-19T13:42:49;17.25;;;15.55;;
34134;SDS011;20410;55.578;12.968;2022-08-19T13:45:20;19.65;;;17.80;;
34134;SDS011;20410;55.578;12.968;2022-08-19T13:47:49;17.45;;;15.80;;
34134;SDS011;20410;55.578;12.968;2022-08-19T13:50:17;17.67;;;15.90;;
34134;SDS011;20410;55.578;12.968;2022-08-19T13:52:45;20.13;;;18.02;;
34134;SDS011;20410;55.578;12.968;2022-08-19T13:55:12;21.65;;;19.55;;
34134;SDS011;20410;55.578;12.968;2022-08-19T13:57:38;19.40;;;17.60;;
34134;SDS011;20410;55.578;12.968;2022-08-19T14:00:04;19.35;;;17.50;;
34134;SDS011;20410;55.578;12.968;2022-08-19T14:02:40;21.13;;;18.90;;
34134;SDS011;20410;55.578;12.968;2022-08-19T14:05:06;19.40;;;17.48;;
34134;SDS011;20410;55.578;12.968;2022-08-19T14:07:33;23.10;;;20.90;;
34134;SDS011;20410;55.578;12.968;2022-08-19T14:09:59;21.70;;;19.70;;
34134;SDS011;20410;55.578;12.968;2022-08-19T14:12:24;24.70;;;22.20;;
34134;SDS011;20410;55.578;12.968;2022-08-19T14:14:50;25.02;;;22.50;;
34134;SDS011;20410;55.578;12.968;2022-08-19T14:17:15;21.48;;;19.48;;
34134;SDS011;20410;55.578;12.968;2022-08-19T14:19:42;16.88;;;15.30;;
34134;SDS011;20410;55.578;12.968;2022-08-19T14:22:08;19.88;;;18.05;;
34134;SDS011;20410;55.578;12.968;2022-08-19T14:24:34;22.42;;;20.33;;
34134;SDS011;20410;55.578;12.968;2022-08-19T14:27:01;23.75;;;21.35;;
34134;SDS011;20410;55.578;12.968;2022-08-19T14:29:28;23.98;;;21.48;;